sensor_id;sensor_type;location;lat;lon;timestamp;P1;durP1;ratioP1;P2;durP2;ratioP2
55216;SDS011;41086;46.736;15.666;2022-08-21T00:00:13;3.90;;;1.92;;
55216;SDS011;41086;46.736;15.666;2022-08-21T00:02:46;7.40;;;1.80;;
55216;SDS011;41086;46.736;15.666;2022-08-21T00:05:17;7.13;;;1.80;;
55216;SDS011;41086;46.736;15.666;2022-08-21T00:07:44;3.63;;;1.75;;
55216;SDS011;41086;46.736;15.666;2022-08-21T00:10:11;6.53;;;2.17;;
55216;SDS011;41086;46.736;15.666;2022-08-21T00:12:39;6.80;;;2.47;;
55216;SDS011;41086;46.736;15.666;2022-08-21T00:15:07;5.75;;;2.15;;
55216;SDS011;41086;46.736;15.666;2022-08-21T00:17:39;4.43;;;2.28;;
55216;SDS011;41086;46.736;15.666;2022-08-21T00:20:07;5.88;;;2.05;;
55216;SDS011;41086;46.736;15.666;2022-08-21T00:22:36;5.50;;;2.40;;
55216;SDS011;41086;46.736;15.666;2022-08-21T00:25:04;7.60;;;2.53;;
55216;SDS011;41086;46.736;15.666;2022-08-21T00:27:32;7.05;;;2.40;;
55216;SDS011;41086;46.736;15.666;2022-08-21T00:30:00;4.38;;;2.80;;
55216;SDS011;41086;46.736;15.666;2022-08-21T00:32:27;4.50;;;2.35;;
55216;SDS011;41086;46.736;15.666;2022-08-21T00:34:54;4.55;;;2.63;;
55216;SDS011;41086;46.736;15.666;2022-08-21T00:39:48;12.02;;;3.35;;
55216;SDS011;41086;46.736;15.666;2022-08-21T00:42:16;5.57;;;2.17;;
55216;SDS011;41086;46.736;15.666;2022-08-21T00:44:45;3.55;;;2.20;;
55216;SDS011;41086;46.736;15.666;2022-08-21T00:47:13;4.28;;;2.25;;
55216;SDS011;41086;46.736;15.666;2022-08-21T00:49:40;11.73;;;2.40;;
55216;SDS011;41086;46.736;15.666;2022-08-21T00:54:36;4.18;;;2.85;;
55216;SDS011;41086;46.736;15.666;2022-08-21T00:57:14;5.57;;;2.38;;
55216;SDS011;41086;46.736;15.666;2022-08-21T00:59:45;11.77;;;2.70;;
55216;SDS011;41086;46.736;15.666;2022-08-21T01:02:16;4.07;;;2.53;;
55216;SDS011;41086;46.736;15.666;2022-08-21T01:04:44;4.80;;;2.55;;
55216;SDS011;41086;46.736;15.666;2022-08-21T01:07:11;7.05;;;2.55;;
55216;SDS011;41086;46.736;15.666;2022-08-21T01:09:39;5.60;;;2.80;;
55216;SDS011;41086;46.736;15.666;2022-08-21T01:12:06;4.82;;;2.60;;
55216;SDS011;41086;46.736;15.666;2022-08-21T01:14:34;8.50;;;2.20;;
55216;SDS011;41086;46.736;15.666;2022-08-21T01:17:02;8.07;;;2.30;;
55216;SDS011;41086;46.736;15.666;2022-08-21T01:19:30;6.10;;;2.38;;
55216;SDS011;41086;46.736;15.666;2022-08-21T01:24:23;3.95;;;2.25;;
55216;SDS011;41086;46.736;15.666;2022-08-21T01:26:51;2.67;;;2.05;;
55216;SDS011;41086;46.736;15.666;2022-08-21T01:32:13;9.32;;;2.70;;
55216;SDS011;41086;46.736;15.666;2022-08-21T01:34:42;4.80;;;2.35;;
55216;SDS011;41086;46.736;15.666;2022-08-21T01:37:10;5.50;;;2.00;;
55216;SDS011;41086;46.736;15.666;2022-08-21T01:39:38;6.57;;;2.42;;
55216;SDS011;41086;46.736;15.666;2022-08-21T01:42:08;7.15;;;2.42;;
55216;SDS011;41086;46.736;15.666;2022-08-21T01:44:36;3.67;;;2.40;;
55216;SDS011;41086;46.736;15.666;2022-08-21T01:49:32;5.75;;;2.30;;
55216;SDS011;41086;46.736;15.666;2022-08-21T01:51:58;5.25;;;2.35;;
55216;SDS011;41086;46.736;15.666;2022-08-21T01:56:52;5.43;;;2.60;;
55216;SDS011;41086;46.736;15.666;2022-08-21T01:59:22;5.35;;;2.45;;
55216;SDS011;41086;46.736;15.666;2022-08-21T02:01:49;5.82;;;2.75;;
55216;SDS011;41086;46.736;15.666;2022-08-21T02:06:43;5.32;;;1.98;;
55216;SDS011;41086;46.736;15.666;2022-08-21T02:11:38;3.45;;;1.67;;
55216;SDS011;41086;46.736;15.666;2022-08-21T02:14:09;6.25;;;2.00;;
55216;SDS011;41086;46.736;15.666;2022-08-21T02:16:38;6.80;;;2.50;;
55216;SDS011;41086;46.736;15.666;2022-08-21T02:19:05;4.07;;;1.92;;
55216;SDS011;41086;46.736;15.666;2022-08-21T02:23:59;3.88;;;2.35;;
55216;SDS011;41086;46.736;15.666;2022-08-21T02:26:26;6.47;;;2.53;;
55216;SDS011;41086;46.736;15.666;2022-08-21T02:28:52;5.57;;;2.10;;
55216;SDS011;41086;46.736;15.666;2022-08-21T02:31:19;7.00;;;2.42;;
55216;SDS011;41086;46.736;15.666;2022-08-21T02:36:13;6.82;;;2.70;;
55216;SDS011;41086;46.736;15.666;2022-08-21T02:38:41;7.35;;;2.80;;
55216;SDS011;41086;46.736;15.666;2022-08-21T02:41:13;6.03;;;2.28;;
55216;SDS011;41086;46.736;15.666;2022-08-21T02:43:42;9.57;;;2.88;;
55216;SDS011;41086;46.736;15.666;2022-08-21T02:46:10;10.35;;;2.75;;
55216;SDS011;41086;46.736;15.666;2022-08-21T02:48:38;8.10;;;2.28;;
55216;SDS011;41086;46.736;15.666;2022-08-21T02:51:07;9.40;;;3.10;;
55216;SDS011;41086;46.736;15.666;2022-08-21T02:53:38;5.55;;;2.55;;
55216;SDS011;41086;46.736;15.666;2022-08-21T02:56:07;9.68;;;3.17;;
55216;SDS011;41086;46.736;15.666;2022-08-21T02:58:37;8.32;;;2.88;;
55216;SDS011;41086;46.736;15.666;2022-08-21T03:01:12;7.97;;;3.00;;
55216;SDS011;41086;46.736;15.666;2022-08-21T03:03:40;10.35;;;2.85;;
55216;SDS011;41086;46.736;15.666;2022-08-21T03:06:09;6.45;;;2.47;;
55216;SDS011;41086;46.736;15.666;2022-08-21T03:08:38;5.65;;;2.42;;
55216;SDS011;41086;46.736;15.666;2022-08-21T03:11:05;5.22;;;2.50;;
55216;SDS011;41086;46.736;15.666;2022-08-21T03:13:35;6.70;;;2.42;;
55216;SDS011;41086;46.736;15.666;2022-08-21T03:16:02;8.10;;;2.35;;
55216;SDS011;41086;46.736;15.666;2022-08-21T03:18:35;5.75;;;2.60;;
55216;SDS011;41086;46.736;15.666;2022-08-21T03:21:03;5.13;;;2.55;;
55216;SDS011;41086;46.736;15.666;2022-08-21T03:23:30;5.25;;;2.60;;
55216;SDS011;41086;46.736;15.666;2022-08-21T03:25:59;9.65;;;2.95;;
55216;SDS011;41086;46.736;15.666;2022-08-21T03:30:53;8.23;;;3.20;;
55216;SDS011;41086;46.736;15.666;2022-08-21T03:33:20;6.47;;;2.10;;
55216;SDS011;41086;46.736;15.666;2022-08-21T03:35:52;8.20;;;3.00;;
55216;SDS011;41086;46.736;15.666;2022-08-21T03:38:27;13.43;;;2.90;;
55216;SDS011;41086;46.736;15.666;2022-08-21T03:40:57;6.00;;;2.80;;
55216;SDS011;41086;46.736;15.666;2022-08-21T03:43:24;7.10;;;2.85;;
55216;SDS011;41086;46.736;15.666;2022-08-21T03:45:51;11.40;;;3.15;;
55216;SDS011;41086;46.736;15.666;2022-08-21T03:50:45;15.27;;;2.70;;
55216;SDS011;41086;46.736;15.666;2022-08-21T03:53:13;5.22;;;2.88;;
55216;SDS011;41086;46.736;15.666;2022-08-21T03:55:44;6.65;;;2.75;;
55216;SDS011;41086;46.736;15.666;2022-08-21T03:58:14;9.18;;;3.08;;
55216;SDS011;41086;46.736;15.666;2022-08-21T04:00:44;4.25;;;2.40;;
55216;SDS011;41086;46.736;15.666;2022-08-21T04:03:12;6.88;;;2.83;;
55216;SDS011;41086;46.736;15.666;2022-08-21T04:05:39;5.32;;;2.55;;
55216;SDS011;41086;46.736;15.666;2022-08-21T04:08:07;8.70;;;2.92;;
55216;SDS011;41086;46.736;15.666;2022-08-21T04:10:36;9.02;;;2.65;;
55216;SDS011;41086;46.736;15.666;2022-08-21T04:13:04;18.00;;;3.47;;
55216;SDS011;41086;46.736;15.666;2022-08-21T04:15:32;7.30;;;2.78;;
55216;SDS011;41086;46.736;15.666;2022-08-21T04:18:00;7.93;;;2.50;;
55216;SDS011;41086;46.736;15.666;2022-08-21T04:20:27;8.80;;;3.03;;
55216;SDS011;41086;46.736;15.666;2022-08-21T04:22:54;5.97;;;2.42;;
55216;SDS011;41086;46.736;15.666;2022-08-21T04:25:22;6.07;;;2.60;;
55216;SDS011;41086;46.736;15.666;2022-08-21T04:27:49;4.45;;;2.65;;
55216;SDS011;41086;46.736;15.666;2022-08-21T04:30:17;5.22;;;2.60;;
55216;SDS011;41086;46.736;15.666;2022-08-21T04:32:45;5.93;;;2.88;;
55216;SDS011;41086;46.736;15.666;2022-08-21T04:35:16;6.22;;;2.80;;
55216;SDS011;41086;46.736;15.666;2022-08-21T04:37:45;8.13;;;2.90;;
55216;SDS011;41086;46.736;15.666;2022-08-21T04:40:13;5.95;;;2.80;;
55216;SDS011;41086;46.736;15.666;2022-08-21T04:42:49;8.27;;;2.33;;
55216;SDS011;41086;46.736;15.666;2022-08-21T04:45:32;6.05;;;2.63;;
55216;SDS011;41086;46.736;15.666;2022-08-21T04:48:01;6.97;;;3.50;;
55216;SDS011;41086;46.736;15.666;2022-08-21T04:53:32;6.18;;;2.25;;
55216;SDS011;41086;46.736;15.666;2022-08-21T04:56:04;9.07;;;3.05;;
55216;SDS011;41086;46.736;15.666;2022-08-21T04:58:35;6.18;;;2.55;;
55216;SDS011;41086;46.736;15.666;2022-08-21T05:01:04;2.72;;;2.13;;
55216;SDS011;41086;46.736;15.666;2022-08-21T05:03:34;4.15;;;2.47;;
55216;SDS011;41086;46.736;15.666;2022-08-21T05:06:03;4.05;;;2.50;;
55216;SDS011;41086;46.736;15.666;2022-08-21T05:08:33;7.95;;;2.55;;
55216;SDS011;41086;46.736;15.666;2022-08-21T05:11:00;4.32;;;2.67;;
55216;SDS011;41086;46.736;15.666;2022-08-21T05:13:28;3.83;;;2.30;;
55216;SDS011;41086;46.736;15.666;2022-08-21T05:15:55;4.70;;;2.28;;
55216;SDS011;41086;46.736;15.666;2022-08-21T05:18:22;6.28;;;2.38;;
55216;SDS011;41086;46.736;15.666;2022-08-21T05:20:50;3.70;;;2.38;;
55216;SDS011;41086;46.736;15.666;2022-08-21T05:23:17;6.32;;;2.95;;
55216;SDS011;41086;46.736;15.666;2022-08-21T05:25:43;9.68;;;2.63;;
55216;SDS011;41086;46.736;15.666;2022-08-21T05:28:11;4.18;;;1.95;;
55216;SDS011;41086;46.736;15.666;2022-08-21T05:30:38;3.55;;;2.05;;
55216;SDS011;41086;46.736;15.666;2022-08-21T05:33:06;3.78;;;2.10;;
55216;SDS011;41086;46.736;15.666;2022-08-21T05:35:33;4.95;;;2.97;;
55216;SDS011;41086;46.736;15.666;2022-08-21T05:38:00;7.03;;;1.98;;
55216;SDS011;41086;46.736;15.666;2022-08-21T05:40:28;3.33;;;1.90;;
55216;SDS011;41086;46.736;15.666;2022-08-21T05:42:55;6.28;;;2.05;;
55216;SDS011;41086;46.736;15.666;2022-08-21T05:45:24;3.58;;;2.10;;
55216;SDS011;41086;46.736;15.666;2022-08-21T05:48:12;9.90;;;2.72;;
55216;SDS011;41086;46.736;15.666;2022-08-21T05:50:42;5.72;;;2.38;;
55216;SDS011;41086;46.736;15.666;2022-08-21T05:53:10;9.98;;;2.47;;
55216;SDS011;41086;46.736;15.666;2022-08-21T05:55:39;4.43;;;2.60;;
55216;SDS011;41086;46.736;15.666;2022-08-21T05:58:12;4.43;;;2.40;;
55216;SDS011;41086;46.736;15.666;2022-08-21T06:00:40;3.95;;;2.08;;
55216;SDS011;41086;46.736;15.666;2022-08-21T06:03:15;4.88;;;1.83;;
55216;SDS011;41086;46.736;15.666;2022-08-21T06:05:44;5.88;;;2.10;;
55216;SDS011;41086;46.736;15.666;2022-08-21T06:08:14;2.45;;;1.67;;
55216;SDS011;41086;46.736;15.666;2022-08-21T06:10:42;4.10;;;1.85;;
55216;SDS011;41086;46.736;15.666;2022-08-21T06:13:11;6.15;;;2.15;;
55216;SDS011;41086;46.736;15.666;2022-08-21T06:15:38;2.67;;;1.98;;
55216;SDS011;41086;46.736;15.666;2022-08-21T06:18:05;4.97;;;2.00;;
55216;SDS011;41086;46.736;15.666;2022-08-21T06:22:59;2.85;;;1.98;;
55216;SDS011;41086;46.736;15.666;2022-08-21T06:25:27;2.85;;;1.98;;
55216;SDS011;41086;46.736;15.666;2022-08-21T06:28:01;4.22;;;2.17;;
55216;SDS011;41086;46.736;15.666;2022-08-21T06:30:29;3.42;;;1.70;;
55216;SDS011;41086;46.736;15.666;2022-08-21T06:35:24;3.43;;;2.10;;
55216;SDS011;41086;46.736;15.666;2022-08-21T06:40:17;4.88;;;1.60;;
55216;SDS011;41086;46.736;15.666;2022-08-21T06:42:44;3.70;;;1.63;;
55216;SDS011;41086;46.736;15.666;2022-08-21T06:45:13;3.05;;;1.42;;
55216;SDS011;41086;46.736;15.666;2022-08-21T06:47:39;4.13;;;1.67;;
55216;SDS011;41086;46.736;15.666;2022-08-21T06:50:07;2.05;;;1.27;;
55216;SDS011;41086;46.736;15.666;2022-08-21T06:52:34;6.95;;;1.67;;
55216;SDS011;41086;46.736;15.666;2022-08-21T06:55:03;1.85;;;1.13;;
55216;SDS011;41086;46.736;15.666;2022-08-21T06:57:32;2.45;;;1.40;;
55216;SDS011;41086;46.736;15.666;2022-08-21T06:59:59;2.10;;;1.50;;
55216;SDS011;41086;46.736;15.666;2022-08-21T07:02:26;2.20;;;1.58;;
55216;SDS011;41086;46.736;15.666;2022-08-21T07:04:53;4.22;;;2.78;;
55216;SDS011;41086;46.736;15.666;2022-08-21T07:07:20;3.22;;;1.98;;
55216;SDS011;41086;46.736;15.666;2022-08-21T07:09:47;5.78;;;1.60;;
55216;SDS011;41086;46.736;15.666;2022-08-21T07:12:13;3.28;;;1.50;;
55216;SDS011;41086;46.736;15.666;2022-08-21T07:14:40;2.25;;;1.73;;
55216;SDS011;41086;46.736;15.666;2022-08-21T07:17:08;3.45;;;1.50;;
55216;SDS011;41086;46.736;15.666;2022-08-21T07:19:35;7.35;;;4.80;;
55216;SDS011;41086;46.736;15.666;2022-08-21T07:22:02;7.53;;;2.05;;
55216;SDS011;41086;46.736;15.666;2022-08-21T07:26:56;3.22;;;1.55;;
55216;SDS011;41086;46.736;15.666;2022-08-21T07:29:23;2.42;;;1.40;;
55216;SDS011;41086;46.736;15.666;2022-08-21T07:31:50;3.33;;;1.67;;
55216;SDS011;41086;46.736;15.666;2022-08-21T07:34:17;5.40;;;1.90;;
55216;SDS011;41086;46.736;15.666;2022-08-21T07:39:11;3.92;;;1.95;;
55216;SDS011;41086;46.736;15.666;2022-08-21T07:41:39;6.57;;;1.75;;
55216;SDS011;41086;46.736;15.666;2022-08-21T07:44:06;6.55;;;2.20;;
55216;SDS011;41086;46.736;15.666;2022-08-21T07:46:33;2.70;;;1.50;;
55216;SDS011;41086;46.736;15.666;2022-08-21T07:49:00;3.30;;;1.60;;
55216;SDS011;41086;46.736;15.666;2022-08-21T07:51:27;4.10;;;1.83;;
55216;SDS011;41086;46.736;15.666;2022-08-21T07:53:56;3.33;;;1.73;;
55216;SDS011;41086;46.736;15.666;2022-08-21T07:56:24;3.45;;;1.75;;
55216;SDS011;41086;46.736;15.666;2022-08-21T07:58:52;6.65;;;1.83;;
55216;SDS011;41086;46.736;15.666;2022-08-21T08:01:19;2.38;;;1.35;;
55216;SDS011;41086;46.736;15.666;2022-08-21T08:03:47;3.33;;;1.20;;
55216;SDS011;41086;46.736;15.666;2022-08-21T08:06:14;2.20;;;1.23;;
55216;SDS011;41086;46.736;15.666;2022-08-21T08:08:42;7.13;;;1.40;;
55216;SDS011;41086;46.736;15.666;2022-08-21T08:11:09;2.92;;;1.45;;
55216;SDS011;41086;46.736;15.666;2022-08-21T08:13:46;2.30;;;1.20;;
55216;SDS011;41086;46.736;15.666;2022-08-21T08:16:16;3.63;;;1.33;;
55216;SDS011;41086;46.736;15.666;2022-08-21T08:18:44;2.92;;;1.30;;
55216;SDS011;41086;46.736;15.666;2022-08-21T08:21:11;1.73;;;1.10;;
55216;SDS011;41086;46.736;15.666;2022-08-21T08:23:39;2.03;;;1.17;;
55216;SDS011;41086;46.736;15.666;2022-08-21T08:28:33;4.13;;;1.23;;
55216;SDS011;41086;46.736;15.666;2022-08-21T08:31:00;4.72;;;3.03;;
55216;SDS011;41086;46.736;15.666;2022-08-21T08:33:27;5.20;;;1.60;;
55216;SDS011;41086;46.736;15.666;2022-08-21T08:35:54;1.20;;;0.90;;
55216;SDS011;41086;46.736;15.666;2022-08-21T08:38:23;2.85;;;1.02;;
55216;SDS011;41086;46.736;15.666;2022-08-21T08:43:38;1.42;;;0.88;;
55216;SDS011;41086;46.736;15.666;2022-08-21T08:46:10;2.30;;;1.05;;
55216;SDS011;41086;46.736;15.666;2022-08-21T08:51:10;2.40;;;1.20;;
55216;SDS011;41086;46.736;15.666;2022-08-21T08:53:47;1.65;;;0.90;;
55216;SDS011;41086;46.736;15.666;2022-08-21T08:56:18;2.70;;;1.13;;
55216;SDS011;41086;46.736;15.666;2022-08-21T08:58:52;1.05;;;0.70;;
55216;SDS011;41086;46.736;15.666;2022-08-21T09:01:22;3.65;;;1.17;;
55216;SDS011;41086;46.736;15.666;2022-08-21T09:03:51;2.03;;;1.20;;
55216;SDS011;41086;46.736;15.666;2022-08-21T09:06:25;1.13;;;0.70;;
55216;SDS011;41086;46.736;15.666;2022-08-21T09:09:10;1.77;;;1.05;;
55216;SDS011;41086;46.736;15.666;2022-08-21T09:11:49;1.58;;;1.05;;
55216;SDS011;41086;46.736;15.666;2022-08-21T09:27:56;1.50;;;1.00;;
55216;SDS011;41086;46.736;15.666;2022-08-21T09:30:25;1.63;;;1.10;;
55216;SDS011;41086;46.736;15.666;2022-08-21T09:32:54;2.03;;;1.27;;
55216;SDS011;41086;46.736;15.666;2022-08-21T09:35:22;3.58;;;1.20;;
55216;SDS011;41086;46.736;15.666;2022-08-21T09:38:01;1.75;;;1.20;;
55216;SDS011;41086;46.736;15.666;2022-08-21T09:40:41;2.20;;;1.30;;
55216;SDS011;41086;46.736;15.666;2022-08-21T09:48:12;2.00;;;1.10;;
55216;SDS011;41086;46.736;15.666;2022-08-21T09:50:41;1.65;;;0.90;;
55216;SDS011;41086;46.736;15.666;2022-08-21T09:53:25;1.50;;;0.95;;
55216;SDS011;41086;46.736;15.666;2022-08-21T09:56:04;1.40;;;1.08;;
55216;SDS011;41086;46.736;15.666;2022-08-21T09:59:00;2.17;;;0.90;;
55216;SDS011;41086;46.736;15.666;2022-08-21T10:01:27;1.20;;;0.80;;
55216;SDS011;41086;46.736;15.666;2022-08-21T10:04:04;2.13;;;1.10;;
55216;SDS011;41086;46.736;15.666;2022-08-21T10:06:34;1.63;;;0.90;;
55216;SDS011;41086;46.736;15.666;2022-08-21T10:09:11;2.88;;;1.02;;
55216;SDS011;41086;46.736;15.666;2022-08-21T10:14:54;1.98;;;1.08;;
55216;SDS011;41086;46.736;15.666;2022-08-21T10:17:52;1.98;;;1.00;;
55216;SDS011;41086;46.736;15.666;2022-08-21T10:20:32;1.73;;;0.85;;
55216;SDS011;41086;46.736;15.666;2022-08-21T10:28:44;1.10;;;0.88;;
55216;SDS011;41086;46.736;15.666;2022-08-21T10:37:10;1.17;;;0.85;;
55216;SDS011;41086;46.736;15.666;2022-08-21T10:40:02;0.95;;;0.47;;
55216;SDS011;41086;46.736;15.666;2022-08-21T10:42:53;1.80;;;0.85;;
55216;SDS011;41086;46.736;15.666;2022-08-21T10:48:16;1.35;;;0.75;;
55216;SDS011;41086;46.736;15.666;2022-08-21T10:50:52;1.30;;;0.73;;
55216;SDS011;41086;46.736;15.666;2022-08-21T10:56:24;1.67;;;0.98;;
55216;SDS011;41086;46.736;15.666;2022-08-21T11:07:33;1.17;;;0.73;;
55216;SDS011;41086;46.736;15.666;2022-08-21T11:10:05;0.88;;;0.63;;
55216;SDS011;41086;46.736;15.666;2022-08-21T11:15:43;1.13;;;0.70;;
55216;SDS011;41086;46.736;15.666;2022-08-21T11:21:06;1.13;;;0.68;;
55216;SDS011;41086;46.736;15.666;2022-08-21T11:26:43;1.25;;;0.93;;
55216;SDS011;41086;46.736;15.666;2022-08-21T11:29:23;1.27;;;0.80;;
55216;SDS011;41086;46.736;15.666;2022-08-21T11:35:02;1.45;;;0.98;;
55216;SDS011;41086;46.736;15.666;2022-08-21T11:37:44;1.02;;;0.70;;
55216;SDS011;41086;46.736;15.666;2022-08-21T11:40:33;1.63;;;0.63;;
55216;SDS011;41086;46.736;15.666;2022-08-21T11:51:47;1.13;;;0.85;;
55216;SDS011;41086;46.736;15.666;2022-08-21T11:54:40;1.38;;;0.93;;
55216;SDS011;41086;46.736;15.666;2022-08-21T11:57:21;1.50;;;0.80;;
55216;SDS011;41086;46.736;15.666;2022-08-21T12:00:00;1.48;;;0.95;;
55216;SDS011;41086;46.736;15.666;2022-08-21T12:02:45;1.17;;;0.80;;
55216;SDS011;41086;46.736;15.666;2022-08-21T12:05:30;1.02;;;0.75;;
55216;SDS011;41086;46.736;15.666;2022-08-21T12:08:10;1.85;;;1.17;;
55216;SDS011;41086;46.736;15.666;2022-08-21T12:11:25;6.03;;;2.22;;
55216;SDS011;41086;46.736;15.666;2022-08-21T12:16:33;0.95;;;0.60;;
55216;SDS011;41086;46.736;15.666;2022-08-21T12:19:10;1.13;;;0.75;;
55216;SDS011;41086;46.736;15.666;2022-08-21T12:22:09;0.93;;;0.57;;
55216;SDS011;41086;46.736;15.666;2022-08-21T12:24:43;1.17;;;0.73;;
55216;SDS011;41086;46.736;15.666;2022-08-21T12:29:49;1.15;;;0.73;;
55216;SDS011;41086;46.736;15.666;2022-08-21T12:32:43;1.00;;;0.63;;
55216;SDS011;41086;46.736;15.666;2022-08-21T12:35:21;1.67;;;0.93;;
55216;SDS011;41086;46.736;15.666;2022-08-21T12:38:14;2.08;;;0.57;;
55216;SDS011;41086;46.736;15.666;2022-08-21T12:40:49;0.73;;;0.52;;
55216;SDS011;41086;46.736;15.666;2022-08-21T12:43:41;1.40;;;0.45;;
55216;SDS011;41086;46.736;15.666;2022-08-21T12:49:26;1.38;;;0.80;;
55216;SDS011;41086;46.736;15.666;2022-08-21T12:52:03;0.90;;;0.50;;
55216;SDS011;41086;46.736;15.666;2022-08-21T12:54:43;0.70;;;0.50;;
55216;SDS011;41086;46.736;15.666;2022-08-21T12:57:18;1.65;;;0.40;;
55216;SDS011;41086;46.736;15.666;2022-08-21T12:59:45;1.00;;;0.60;;
55216;SDS011;41086;46.736;15.666;2022-08-21T13:02:19;0.82;;;0.40;;
55216;SDS011;41086;46.736;15.666;2022-08-21T13:04:50;0.70;;;0.50;;
55216;SDS011;41086;46.736;15.666;2022-08-21T13:07:22;0.90;;;0.60;;
55216;SDS011;41086;46.736;15.666;2022-08-21T13:09:54;0.77;;;0.40;;
55216;SDS011;41086;46.736;15.666;2022-08-21T13:12:30;0.80;;;0.50;;
55216;SDS011;41086;46.736;15.666;2022-08-21T13:15:04;2.08;;;0.60;;
55216;SDS011;41086;46.736;15.666;2022-08-21T13:17:36;0.93;;;0.40;;
55216;SDS011;41086;46.736;15.666;2022-08-21T13:20:09;1.33;;;0.70;;
55216;SDS011;41086;46.736;15.666;2022-08-21T13:22:47;2.33;;;0.47;;
55216;SDS011;41086;46.736;15.666;2022-08-21T13:25:15;1.05;;;0.60;;
55216;SDS011;41086;46.736;15.666;2022-08-21T13:27:55;0.93;;;0.52;;
55216;SDS011;41086;46.736;15.666;2022-08-21T13:30:27;1.23;;;0.70;;
55216;SDS011;41086;46.736;15.666;2022-08-21T13:32:55;0.93;;;0.60;;
55216;SDS011;41086;46.736;15.666;2022-08-21T13:37:54;1.30;;;0.60;;
55216;SDS011;41086;46.736;15.666;2022-08-21T13:40:26;0.82;;;0.50;;
55216;SDS011;41086;46.736;15.666;2022-08-21T13:42:59;0.55;;;0.47;;
55216;SDS011;41086;46.736;15.666;2022-08-21T13:45:30;1.17;;;0.57;;
55216;SDS011;41086;46.736;15.666;2022-08-21T13:47:59;0.82;;;0.57;;
55216;SDS011;41086;46.736;15.666;2022-08-21T13:50:32;3.35;;;0.80;;
55216;SDS011;41086;46.736;15.666;2022-08-21T13:53:03;1.23;;;0.63;;
55216;SDS011;41086;46.736;15.666;2022-08-21T13:55:34;0.82;;;0.70;;
55216;SDS011;41086;46.736;15.666;2022-08-21T13:58:03;1.02;;;0.70;;
55216;SDS011;41086;46.736;15.666;2022-08-21T14:00:32;0.52;;;0.43;;
55216;SDS011;41086;46.736;15.666;2022-08-21T14:03:08;0.20;;;0.20;;
55216;SDS011;41086;46.736;15.666;2022-08-21T14:05:44;3.63;;;1.98;;
55216;SDS011;41086;46.736;15.666;2022-08-21T14:08:26;1.23;;;0.80;;
55216;SDS011;41086;46.736;15.666;2022-08-21T14:11:03;0.77;;;0.38;;
55216;SDS011;41086;46.736;15.666;2022-08-21T14:13:41;0.60;;;0.43;;
55216;SDS011;41086;46.736;15.666;2022-08-21T14:16:16;0.40;;;0.30;;
55216;SDS011;41086;46.736;15.666;2022-08-21T14:21:36;1.63;;;0.30;;
55216;SDS011;41086;46.736;15.666;2022-08-21T14:26:50;1.45;;;0.30;;
55216;SDS011;41086;46.736;15.666;2022-08-21T14:29:20;0.98;;;0.52;;
55216;SDS011;41086;46.736;15.666;2022-08-21T14:31:54;0.50;;;0.40;;
55216;SDS011;41086;46.736;15.666;2022-08-21T14:34:24;0.63;;;0.30;;
55216;SDS011;41086;46.736;15.666;2022-08-21T14:36:58;0.90;;;0.40;;
55216;SDS011;41086;46.736;15.666;2022-08-21T14:39:24;4.03;;;0.40;;
55216;SDS011;41086;46.736;15.666;2022-08-21T14:41:51;14.88;;;0.50;;
55216;SDS011;41086;46.736;15.666;2022-08-21T14:44:18;2.25;;;0.43;;
55216;SDS011;41086;46.736;15.666;2022-08-21T14:46:45;0.73;;;0.40;;
55216;SDS011;41086;46.736;15.666;2022-08-21T14:49:23;5.00;;;0.80;;
55216;SDS011;41086;46.736;15.666;2022-08-21T14:51:53;0.52;;;0.28;;
55216;SDS011;41086;46.736;15.666;2022-08-21T14:54:24;1.17;;;0.40;;
55216;SDS011;41086;46.736;15.666;2022-08-21T14:57:06;0.57;;;0.47;;
55216;SDS011;41086;46.736;15.666;2022-08-21T14:59:35;2.42;;;0.40;;
55216;SDS011;41086;46.736;15.666;2022-08-21T15:02:03;2.45;;;0.55;;
55216;SDS011;41086;46.736;15.666;2022-08-21T15:04:31;11.40;;;1.10;;
55216;SDS011;41086;46.736;15.666;2022-08-21T15:06:58;0.90;;;0.40;;
55216;SDS011;41086;46.736;15.666;2022-08-21T15:09:25;0.85;;;0.40;;
55216;SDS011;41086;46.736;15.666;2022-08-21T15:11:55;2.03;;;0.60;;
55216;SDS011;41086;46.736;15.666;2022-08-21T15:14:25;0.98;;;0.60;;
55216;SDS011;41086;46.736;15.666;2022-08-21T15:16:55;3.08;;;0.60;;
55216;SDS011;41086;46.736;15.666;2022-08-21T15:19:22;0.93;;;0.50;;
55216;SDS011;41086;46.736;15.666;2022-08-21T15:21:49;2.97;;;0.50;;
55216;SDS011;41086;46.736;15.666;2022-08-21T15:26:43;0.35;;;0.30;;
55216;SDS011;41086;46.736;15.666;2022-08-21T15:29:10;0.40;;;0.30;;
55216;SDS011;41086;46.736;15.666;2022-08-21T15:31:37;0.73;;;0.55;;
55216;SDS011;41086;46.736;15.666;2022-08-21T15:34:20;0.73;;;0.43;;
55216;SDS011;41086;46.736;15.666;2022-08-21T15:36:53;0.65;;;0.38;;
55216;SDS011;41086;46.736;15.666;2022-08-21T15:39:23;0.32;;;0.28;;
55216;SDS011;41086;46.736;15.666;2022-08-21T15:41:56;0.40;;;0.30;;
55216;SDS011;41086;46.736;15.666;2022-08-21T15:44:23;1.08;;;0.45;;
55216;SDS011;41086;46.736;15.666;2022-08-21T15:46:52;0.38;;;0.30;;
55216;SDS011;41086;46.736;15.666;2022-08-21T15:49:19;0.75;;;0.45;;
55216;SDS011;41086;46.736;15.666;2022-08-21T15:51:45;2.65;;;0.40;;
55216;SDS011;41086;46.736;15.666;2022-08-21T15:54:12;0.50;;;0.40;;
55216;SDS011;41086;46.736;15.666;2022-08-21T15:56:39;0.40;;;0.30;;
55216;SDS011;41086;46.736;15.666;2022-08-21T15:59:13;0.40;;;0.30;;
55216;SDS011;41086;46.736;15.666;2022-08-21T16:01:42;0.63;;;0.50;;
55216;SDS011;41086;46.736;15.666;2022-08-21T16:04:11;0.70;;;0.40;;
55216;SDS011;41086;46.736;15.666;2022-08-21T16:06:44;1.30;;;1.08;;
55216;SDS011;41086;46.736;15.666;2022-08-21T16:09:23;2.17;;;1.30;;
55216;SDS011;41086;46.736;15.666;2022-08-21T16:11:50;1.80;;;0.60;;
55216;SDS011;41086;46.736;15.666;2022-08-21T16:14:17;1.17;;;1.08;;
55216;SDS011;41086;46.736;15.666;2022-08-21T16:16:44;1.98;;;1.05;;
55216;SDS011;41086;46.736;15.666;2022-08-21T16:19:12;0.93;;;0.70;;
55216;SDS011;41086;46.736;15.666;2022-08-21T16:21:40;0.90;;;0.50;;
55216;SDS011;41086;46.736;15.666;2022-08-21T16:24:07;1.08;;;0.40;;
55216;SDS011;41086;46.736;15.666;2022-08-21T16:26:33;1.00;;;0.60;;
55216;SDS011;41086;46.736;15.666;2022-08-21T16:29:02;0.90;;;0.45;;
55216;SDS011;41086;46.736;15.666;2022-08-21T16:31:37;1.00;;;0.50;;
55216;SDS011;41086;46.736;15.666;2022-08-21T16:34:04;1.30;;;0.60;;
55216;SDS011;41086;46.736;15.666;2022-08-21T16:36:31;0.75;;;0.50;;
55216;SDS011;41086;46.736;15.666;2022-08-21T16:39:00;0.80;;;0.50;;
55216;SDS011;41086;46.736;15.666;2022-08-21T16:41:28;0.93;;;0.60;;
55216;SDS011;41086;46.736;15.666;2022-08-21T16:43:58;0.68;;;0.50;;
55216;SDS011;41086;46.736;15.666;2022-08-21T16:46:27;1.33;;;0.65;;
55216;SDS011;41086;46.736;15.666;2022-08-21T16:48:57;0.68;;;0.50;;
55216;SDS011;41086;46.736;15.666;2022-08-21T16:51:23;1.77;;;0.70;;
55216;SDS011;41086;46.736;15.666;2022-08-21T16:53:50;1.52;;;0.80;;
55216;SDS011;41086;46.736;15.666;2022-08-21T16:58:45;0.60;;;0.45;;
55216;SDS011;41086;46.736;15.666;2022-08-21T17:01:15;1.48;;;0.85;;
55216;SDS011;41086;46.736;15.666;2022-08-21T17:03:46;2.45;;;0.82;;
55216;SDS011;41086;46.736;15.666;2022-08-21T17:06:16;2.42;;;0.60;;
55216;SDS011;41086;46.736;15.666;2022-08-21T17:08:46;0.75;;;0.40;;
55216;SDS011;41086;46.736;15.666;2022-08-21T17:14:04;1.30;;;0.70;;
55216;SDS011;41086;46.736;15.666;2022-08-21T17:16:35;1.00;;;0.70;;
55216;SDS011;41086;46.736;15.666;2022-08-21T17:19:04;1.30;;;0.85;;